createdAt,value
2019-05-29T00:00:10.355Z,1.20
2019-05-29T00:02:39.262Z,1.30
2019-05-29T00:05:08.291Z,1.10
2019-05-29T00:07:37.198Z,1.10
2019-05-29T00:10:10.473Z,1.17
2019-05-29T00:12:39.532Z,1.40
2019-05-29T00:15:08.466Z,1.30
2019-05-29T00:17:37.357Z,1.40
2019-05-29T00:20:08.203Z,1.37
2019-05-29T00:22:37.288Z,1.20
2019-05-29T00:25:08.422Z,1.07
2019-05-29T00:27:37.558Z,1.20
2019-05-29T00:30:08.549Z,1.30
2019-05-29T00:32:38.156Z,1.10
2019-05-29T00:35:08.440Z,1.07
2019-05-29T00:37:37.496Z,1.10
2019-05-29T00:40:08.911Z,1.27
2019-05-29T00:42:38.073Z,1.27
2019-05-29T00:45:09.495Z,1.20
2019-05-29T00:47:38.720Z,1.50
2019-05-29T00:50:09.813Z,1.10
2019-05-29T00:52:38.912Z,1.27
2019-05-29T00:55:08.736Z,1.40
2019-05-29T00:57:37.859Z,1.43
2019-05-29T01:00:09.583Z,1.17
2019-05-29T01:02:38.512Z,1.60
2019-05-29T01:05:08.100Z,1.50
2019-05-29T01:07:37.057Z,1.60
2019-05-29T01:10:07.873Z,1.30
2019-05-29T01:12:36.809Z,1.27
2019-05-29T01:15:07.483Z,1.37
2019-05-29T01:17:36.081Z,1.33
2019-05-29T01:20:07.350Z,1.40
2019-05-29T01:22:36.044Z,1.33
2019-05-29T01:25:06.448Z,1.40
2019-05-29T01:27:35.062Z,1.53
2019-05-29T01:30:05.152Z,1.30
2019-05-29T01:32:33.745Z,1.30
2019-05-29T01:35:02.489Z,1.13
2019-05-29T01:37:31.084Z,1.43
2019-05-29T01:39:59.713Z,1.60
2019-05-29T01:42:28.336Z,1.30
2019-05-29T01:45:07.144Z,1.50
2019-05-29T01:47:28.045Z,1.50
2019-05-29T01:49:57.321Z,1.30
2019-05-29T01:52:26.276Z,1.27
2019-05-29T01:54:55.182Z,1.63
2019-05-29T01:57:24.147Z,1.33
2019-05-29T01:59:53.033Z,1.10
2019-05-29T02:02:22.033Z,1.07
2019-05-29T02:04:50.989Z,0.97
2019-05-29T02:07:19.995Z,1.40
2019-05-29T02:09:49.051Z,1.30
2019-05-29T02:12:19.717Z,1.50
2019-05-29T02:14:49.357Z,1.40
2019-05-29T02:17:19.608Z,1.50
2019-05-29T02:19:48.744Z,1.30
2019-05-29T02:22:18.702Z,1.43
2019-05-29T02:24:48.014Z,1.30
2019-05-29T02:27:17.347Z,1.47
2019-05-29T02:29:46.366Z,1.43
2019-05-29T02:32:15.265Z,1.20
2019-05-29T02:34:44.218Z,1.50
2019-05-29T02:37:13.126Z,1.50
2019-05-29T02:39:42.074Z,1.30
2019-05-29T02:42:10.973Z,1.30
2019-05-29T02:44:39.915Z,1.33
2019-05-29T02:47:08.830Z,1.43
2019-05-29T02:49:37.774Z,1.40
2019-05-29T02:52:06.679Z,1.50
2019-05-29T02:54:35.624Z,1.23
2019-05-29T02:57:04.524Z,2.07
2019-05-29T02:59:33.468Z,1.40
2019-05-29T03:02:02.385Z,1.67
2019-05-29T03:04:32.866Z,1.50
2019-05-29T03:07:02.169Z,1.43
2019-05-29T03:09:32.577Z,1.47
2019-05-29T03:12:01.706Z,1.43
2019-05-29T03:14:31.775Z,1.67
2019-05-29T03:17:01.204Z,1.50
2019-05-29T03:19:32.361Z,1.40
2019-05-29T03:22:01.264Z,1.30
2019-05-29T03:24:30.848Z,1.23
2019-05-29T03:27:00.286Z,1.80
2019-05-29T03:29:29.980Z,1.40
2019-05-29T03:31:59.139Z,2.20
2019-05-29T03:34:33.713Z,1.37
2019-05-29T03:36:58.719Z,1.47
2019-05-29T03:39:28.115Z,1.47
2019-05-29T03:41:57.159Z,1.43
2019-05-29T03:44:26.406Z,1.47
2019-05-29T03:46:55.432Z,1.10
2019-05-29T03:49:24.499Z,1.30
2019-05-29T03:51:53.817Z,1.17
2019-05-29T03:54:22.759Z,1.30
2019-05-29T03:56:51.658Z,1.33
2019-05-29T03:59:20.614Z,1.10
2019-05-29T04:01:49.519Z,1.43
2019-05-29T04:04:18.418Z,1.33
2019-05-29T04:06:47.664Z,1.40
2019-05-29T04:09:16.785Z,1.13
2019-05-29T04:11:45.704Z,1.60
2019-05-29T04:14:15.106Z,1.37
2019-05-29T04:16:59.011Z,1.30
2019-05-29T04:19:16.670Z,1.50
2019-05-29T04:21:47.014Z,1.17
2019-05-29T04:24:18.752Z,1.37
2019-05-29T04:26:48.404Z,1.33
2019-05-29T04:29:17.700Z,1.20
2019-05-29T04:31:46.641Z,1.13
2019-05-29T04:34:15.540Z,1.50
2019-05-29T04:36:44.481Z,1.33
2019-05-29T04:39:13.384Z,1.03
2019-05-29T04:41:42.334Z,1.30
2019-05-29T04:44:11.252Z,1.47
2019-05-29T04:46:40.703Z,1.47
2019-05-29T04:49:09.790Z,1.33
2019-05-29T04:51:39.914Z,1.40
2019-05-29T04:54:09.093Z,1.30
2019-05-29T04:56:39.130Z,1.30
2019-05-29T04:59:08.174Z,1.33
2019-05-29T05:01:37.219Z,1.17
2019-05-29T05:04:06.177Z,1.10
2019-05-29T05:06:35.365Z,1.13
2019-05-29T05:09:05.670Z,1.23
2019-05-29T05:11:35.470Z,1.03
2019-05-29T05:14:05.945Z,1.00
2019-05-29T05:16:35.752Z,0.90
2019-05-29T05:19:04.876Z,1.23
2019-05-29T05:21:34.080Z,0.97
2019-05-29T05:24:03.125Z,1.30
2019-05-29T05:26:32.159Z,1.00
2019-05-29T05:29:01.096Z,1.10
2019-05-29T05:31:30.330Z,1.17
2019-05-29T05:33:59.248Z,1.10
2019-05-29T05:36:28.199Z,1.13
2019-05-29T05:38:57.102Z,1.10
2019-05-29T05:41:26.039Z,0.90
2019-05-29T05:43:54.953Z,1.40
2019-05-29T05:46:24.829Z,0.80
2019-05-29T05:48:53.794Z,1.00
2019-05-29T05:51:22.703Z,1.10
2019-05-29T05:53:51.652Z,1.17
2019-05-29T05:56:20.542Z,0.97
2019-05-29T05:58:49.491Z,1.80
2019-05-29T06:01:18.401Z,0.80
2019-05-29T06:03:47.345Z,1.10
2019-05-29T06:06:16.312Z,1.20
2019-05-29T06:08:45.576Z,0.97
2019-05-29T06:11:14.480Z,0.97
2019-05-29T06:13:43.455Z,1.37
2019-05-29T06:16:12.380Z,1.13
2019-05-29T06:18:42.777Z,1.00
2019-05-29T06:21:12.063Z,1.10
2019-05-29T06:23:41.189Z,1.20
2019-05-29T06:26:10.140Z,1.20
2019-05-29T06:28:39.199Z,1.10
2019-05-29T06:31:08.153Z,1.13
2019-05-29T06:33:37.412Z,1.10
2019-05-29T06:36:06.421Z,0.80
2019-05-29T06:38:35.629Z,1.10
2019-05-29T06:41:05.020Z,1.00
2019-05-29T06:43:34.030Z,1.27
2019-05-29T06:46:04.007Z,1.03
2019-05-29T06:48:46.225Z,0.90
2019-05-29T06:51:03.732Z,0.70
2019-05-29T06:53:32.887Z,1.10
2019-05-29T06:56:02.729Z,1.00
2019-05-29T06:58:32.276Z,1.33
2019-05-29T07:01:01.229Z,1.00
2019-05-29T07:03:30.198Z,1.20
2019-05-29T07:05:59.164Z,1.00
2019-05-29T07:08:38.325Z,1.40
2019-05-29T07:10:58.666Z,0.87
2019-05-29T07:13:27.575Z,0.80
2019-05-29T07:15:56.534Z,1.10
2019-05-29T07:18:25.449Z,0.93
2019-05-29T07:20:54.435Z,0.83
2019-05-29T07:23:23.358Z,1.10
2019-05-29T07:25:52.298Z,0.83
2019-05-29T07:28:21.633Z,0.90
2019-05-29T07:31:00.366Z,1.00
2019-05-29T07:33:21.177Z,0.90
2019-05-29T07:35:50.123Z,1.10
2019-05-29T07:38:19.037Z,1.00
2019-05-29T07:40:49.901Z,1.10
2019-05-29T07:43:18.385Z,1.03
2019-05-29T07:45:48.223Z,1.30
2019-05-29T07:48:17.407Z,0.80
2019-05-29T07:50:46.367Z,1.33
2019-05-29T07:53:15.328Z,1.07
2019-05-29T07:55:44.678Z,0.73
2019-05-29T07:58:13.691Z,1.10
2019-05-29T08:01:08.151Z,1.03
2019-05-29T08:03:15.706Z,0.77
2019-05-29T08:05:50.991Z,0.80
2019-05-29T08:08:25.182Z,0.80
2019-05-29T08:10:56.988Z,0.80
2019-05-29T08:13:27.228Z,0.93
2019-05-29T08:16:02.740Z,1.00
2019-05-29T08:18:29.925Z,1.30
2019-05-29T08:21:00.590Z,0.93
2019-05-29T08:23:29.578Z,0.97
2019-05-29T08:25:58.540Z,0.80
2019-05-29T08:28:27.449Z,0.80
2019-05-29T08:30:57.393Z,1.00
2019-05-29T08:33:26.446Z,1.00
2019-05-29T08:35:59.943Z,0.87
2019-05-29T08:38:26.372Z,1.17
2019-05-29T08:40:55.452Z,0.70
2019-05-29T08:43:24.447Z,0.87
2019-05-29T08:45:53.563Z,0.90
2019-05-29T08:48:22.952Z,0.77
2019-05-29T08:50:52.036Z,0.80
2019-05-29T08:53:21.666Z,1.00
2019-05-29T08:55:50.770Z,1.00
2019-05-29T08:58:19.929Z,1.07
2019-05-29T09:00:53.219Z,0.90
2019-05-29T09:03:22.192Z,1.00
2019-05-29T09:06:08.167Z,0.90
2019-05-29T09:08:22.003Z,1.20
2019-05-29T09:10:51.805Z,1.07
2019-05-29T09:13:21.092Z,1.10
2019-05-29T09:15:50.246Z,1.00
2019-05-29T09:18:19.776Z,1.03
2019-05-29T09:21:02.890Z,0.83
2019-05-29T09:23:20.984Z,1.13
2019-05-29T09:25:51.558Z,0.90
2019-05-29T09:28:20.835Z,0.80
2019-05-29T09:30:49.836Z,1.07
2019-05-29T09:33:21.324Z,0.97
2019-05-29T09:35:49.338Z,0.97
2019-05-29T09:38:18.820Z,1.10
2019-05-29T09:40:47.997Z,0.80
2019-05-29T09:43:18.112Z,0.90
2019-05-29T09:45:47.773Z,0.83
2019-05-29T09:48:20.077Z,0.70
2019-05-29T09:50:50.461Z,1.10
2019-05-29T09:53:18.882Z,1.13
2019-05-29T09:55:47.789Z,0.80
2019-05-29T09:58:16.838Z,1.00
2019-05-29T10:00:46.452Z,0.90
2019-05-29T10:03:15.411Z,0.90
2019-05-29T10:05:44.309Z,1.13
2019-05-29T10:08:16.862Z,1.27
2019-05-29T10:10:43.846Z,1.10
2019-05-29T10:13:12.888Z,1.20
2019-05-29T10:15:41.788Z,1.07
2019-05-29T10:18:30.473Z,1.20
2019-05-29T10:20:41.306Z,1.10
2019-05-29T10:23:10.196Z,0.87
2019-05-29T10:25:39.144Z,1.00
2019-05-29T10:28:08.220Z,1.30
2019-05-29T10:30:37.195Z,1.23
2019-05-29T10:33:06.136Z,0.90
2019-05-29T10:35:35.082Z,1.10
2019-05-29T10:38:04.486Z,0.80
2019-05-29T10:40:33.547Z,0.80
2019-05-29T10:43:02.468Z,0.73
2019-05-29T10:45:31.422Z,1.10
2019-05-29T10:48:00.420Z,1.00
2019-05-29T10:50:30.217Z,0.90
2019-05-29T10:52:59.128Z,0.90
2019-05-29T10:55:28.066Z,0.83
2019-05-29T10:57:56.965Z,1.17
2019-05-29T11:00:26.206Z,1.10
2019-05-29T11:02:57.445Z,1.23
2019-05-29T11:05:25.686Z,0.70
2019-05-29T11:07:55.846Z,1.23
2019-05-29T11:10:24.949Z,1.13
2019-05-29T11:12:54.649Z,1.00
2019-05-29T11:15:23.789Z,0.90
2019-05-29T11:17:53.234Z,1.10
2019-05-29T11:20:22.737Z,1.30
2019-05-29T11:22:51.743Z,1.00
2019-05-29T11:25:24.879Z,0.83
2019-05-29T11:27:53.031Z,0.90
2019-05-29T11:30:22.149Z,0.80
2019-05-29T11:32:54.663Z,0.77
2019-05-29T11:35:22.167Z,0.80
2019-05-29T11:37:52.347Z,0.70
2019-05-29T11:40:21.812Z,0.70
2019-05-29T11:42:50.840Z,1.23
2019-05-29T11:45:20.554Z,0.93
2019-05-29T11:47:51.337Z,0.87
2019-05-29T11:50:20.301Z,0.80
2019-05-29T11:52:50.313Z,0.80
2019-05-29T11:55:19.846Z,1.00
2019-05-29T11:57:48.798Z,0.90
2019-05-29T12:00:20.687Z,0.93
2019-05-29T12:02:48.722Z,1.07
2019-05-29T12:05:17.822Z,0.80
2019-05-29T12:07:46.778Z,0.90
2019-05-29T12:10:16.277Z,1.13
2019-05-29T12:12:45.361Z,1.10
2019-05-29T12:15:17.106Z,0.90
2019-05-29T12:17:45.063Z,0.97
2019-05-29T12:20:30.623Z,0.83
2019-05-29T12:23:10.792Z,0.87
2019-05-29T12:25:16.631Z,1.00
2019-05-29T12:27:48.443Z,1.00
2019-05-29T12:30:18.817Z,0.80
2019-05-29T12:32:47.757Z,0.90
2019-05-29T12:35:16.667Z,0.97
2019-05-29T12:37:45.610Z,0.90
2019-05-29T12:40:16.096Z,0.80
2019-05-29T12:42:45.345Z,0.60
2019-05-29T12:45:14.539Z,0.77
2019-05-29T12:47:43.516Z,0.70
2019-05-29T12:50:13.529Z,0.73
2019-05-29T12:52:42.762Z,0.70
2019-05-29T12:55:13.467Z,1.00
2019-05-29T12:57:42.785Z,1.07
2019-05-29T13:00:17.102Z,1.10
2019-05-29T13:02:46.058Z,1.00
2019-05-29T13:05:20.106Z,0.93
2019-05-29T13:07:46.150Z,0.70
2019-05-29T13:10:29.335Z,1.13
2019-05-29T13:12:47.519Z,1.13
2019-05-29T13:15:17.837Z,1.00
2019-05-29T13:17:46.799Z,1.10
2019-05-29T13:20:21.801Z,1.20
2019-05-29T13:22:47.222Z,0.97
2019-05-29T13:25:16.318Z,1.00
2019-05-29T13:27:45.287Z,0.90
2019-05-29T13:30:16.184Z,1.23
2019-05-29T13:32:45.609Z,0.90
2019-05-29T13:35:15.079Z,0.90
2019-05-29T13:37:44.019Z,1.20
2019-05-29T13:40:14.307Z,0.90
2019-05-29T13:42:43.691Z,0.90
2019-05-29T13:45:18.310Z,0.80
2019-05-29T13:47:43.903Z,1.30
2019-05-29T13:50:13.608Z,0.87
2019-05-29T13:52:42.559Z,0.90
2019-05-29T13:55:13.930Z,0.93
2019-05-29T13:57:42.870Z,0.80
2019-05-29T14:00:32.418Z,0.50
2019-05-29T14:02:45.464Z,0.87
2019-05-29T14:05:16.062Z,0.77
2019-05-29T14:07:45.037Z,0.70
2019-05-29T14:10:15.610Z,0.90
2019-05-29T14:12:44.583Z,0.90
2019-05-29T14:15:13.585Z,1.00
2019-05-29T14:17:42.488Z,0.93
2019-05-29T14:20:12.931Z,1.43
2019-05-29T14:22:42.053Z,0.70
2019-05-29T14:25:11.686Z,1.00
2019-05-29T14:27:40.851Z,0.80
2019-05-29T14:30:11.522Z,1.10
2019-05-29T14:32:40.427Z,0.83
2019-05-29T14:35:11.131Z,0.80
2019-05-29T14:37:41.802Z,1.00
2019-05-29T14:40:12.341Z,1.30
2019-05-29T14:42:41.431Z,0.70
2019-05-29T14:45:12.252Z,0.80
2019-05-29T14:47:41.562Z,0.80
2019-05-29T14:50:13.233Z,1.10
2019-05-29T14:52:42.162Z,0.90
2019-05-29T14:55:16.159Z,0.90
2019-05-29T14:57:43.413Z,1.27
2019-05-29T15:00:24.451Z,0.80
2019-05-29T15:02:46.587Z,1.00
2019-05-29T15:05:16.032Z,0.90
2019-05-29T15:07:44.940Z,1.40
2019-05-29T15:10:25.138Z,2.83
2019-05-29T15:12:45.441Z,1.07
2019-05-29T15:15:16.443Z,0.93
2019-05-29T15:17:45.128Z,1.00
2019-05-29T15:20:16.937Z,0.80
2019-05-29T15:22:46.752Z,0.90
2019-05-29T15:25:23.465Z,0.80
2019-05-29T15:27:46.527Z,1.17
2019-05-29T15:30:20.852Z,1.07
2019-05-29T15:32:46.484Z,1.00
2019-05-29T15:35:19.309Z,0.97
2019-05-29T15:37:46.168Z,0.80
2019-05-29T15:40:16.671Z,0.80
2019-05-29T15:42:46.092Z,0.90
2019-05-29T15:45:16.052Z,0.90
2019-05-29T15:47:45.042Z,0.87
2019-05-29T15:50:16.118Z,3.70
2019-05-29T15:52:44.949Z,1.10
2019-05-29T15:55:33.264Z,1.00
2019-05-29T15:57:44.725Z,0.70
2019-05-29T16:00:15.721Z,0.80
2019-05-29T16:02:48.200Z,1.00
2019-05-29T16:05:17.202Z,0.80
2019-05-29T16:07:46.256Z,0.97
2019-05-29T16:10:20.570Z,2.00
2019-05-29T16:12:49.109Z,0.90
2019-05-29T16:15:19.451Z,0.80
2019-05-29T16:17:48.563Z,1.17
2019-05-29T16:20:18.697Z,1.03
2019-05-29T16:22:47.868Z,1.00
2019-05-29T16:25:18.979Z,1.00
2019-05-29T16:27:48.233Z,0.80
2019-05-29T16:30:17.777Z,0.80
2019-05-29T16:32:49.465Z,0.90
2019-05-29T16:35:19.604Z,0.90
2019-05-29T16:37:48.801Z,0.60
2019-05-29T16:40:19.937Z,0.80
2019-05-29T16:42:49.084Z,0.60
2019-05-29T16:45:18.636Z,0.77
2019-05-29T16:47:47.761Z,0.80
2019-05-29T16:50:17.482Z,0.83
2019-05-29T16:52:46.988Z,0.80
2019-05-29T16:55:17.198Z,0.80
2019-05-29T16:57:46.392Z,0.90
2019-05-29T17:00:15.822Z,0.90
2019-05-29T17:02:45.239Z,0.93
2019-05-29T17:05:14.145Z,0.77
2019-05-29T17:07:47.520Z,0.90
2019-05-29T17:10:18.399Z,0.73
2019-05-29T17:12:47.565Z,1.03
2019-05-29T17:15:17.205Z,0.70
2019-05-29T17:17:49.669Z,1.00
2019-05-29T17:20:22.955Z,0.60
2019-05-29T17:22:51.959Z,0.60
2019-05-29T17:25:25.051Z,0.90
2019-05-29T17:27:51.454Z,0.73
2019-05-29T17:30:25.527Z,0.77
2019-05-29T17:32:55.698Z,0.60
2019-05-29T17:35:25.227Z,0.70
2019-05-29T17:37:54.342Z,0.67
2019-05-29T17:40:23.569Z,0.60
2019-05-29T17:42:52.591Z,0.60
2019-05-29T17:45:24.528Z,0.80
2019-05-29T17:47:52.089Z,0.80
2019-05-29T17:50:23.130Z,0.60
2019-05-29T17:52:51.690Z,0.60
2019-05-29T17:55:22.147Z,0.77
2019-05-29T17:57:51.253Z,0.93
2019-05-29T18:00:22.479Z,0.80
2019-05-29T18:02:52.807Z,0.73
2019-05-29T18:05:22.647Z,0.73
2019-05-29T18:07:51.789Z,0.60
2019-05-29T18:10:22.489Z,0.67
2019-05-29T18:12:51.794Z,0.80
2019-05-29T18:15:21.757Z,0.70
2019-05-29T18:17:50.745Z,0.50
2019-05-29T18:20:20.038Z,0.60
2019-05-29T18:22:49.003Z,0.70
2019-05-29T18:25:19.705Z,0.63
2019-05-29T18:27:49.005Z,0.70
2019-05-29T18:30:20.170Z,0.50
2019-05-29T18:32:49.257Z,0.70
2019-05-29T18:35:19.024Z,0.60
2019-05-29T18:37:48.112Z,0.60
2019-05-29T18:40:17.164Z,0.60
2019-05-29T18:42:46.072Z,0.80
2019-05-29T18:45:21.003Z,0.90
2019-05-29T18:47:47.341Z,0.60
2019-05-29T18:50:17.080Z,0.97
2019-05-29T18:52:45.978Z,0.80
2019-05-29T18:55:15.013Z,0.73
2019-05-29T18:57:44.232Z,0.90
2019-05-29T19:00:14.972Z,0.73
2019-05-29T19:02:43.859Z,0.60
2019-05-29T19:05:13.106Z,0.80
2019-05-29T19:07:42.003Z,0.70
2019-05-29T19:10:12.250Z,0.60
2019-05-29T19:12:41.547Z,0.70
2019-05-29T19:15:11.186Z,0.60
2019-05-29T19:17:40.089Z,0.90
2019-05-29T19:20:09.724Z,0.80
2019-05-29T19:22:39.007Z,0.80
2019-05-29T19:25:09.749Z,0.70
2019-05-29T19:27:41.887Z,0.80
2019-05-29T19:30:09.897Z,1.00
2019-05-29T19:32:39.295Z,0.90
2019-05-29T19:35:08.740Z,0.93
2019-05-29T19:37:37.738Z,1.00
2019-05-29T19:40:08.655Z,1.00
2019-05-29T19:42:37.767Z,0.90
2019-05-29T19:45:08.695Z,0.90
2019-05-29T19:47:37.594Z,1.00
2019-05-29T19:50:10.866Z,0.90
2019-05-29T19:52:37.962Z,1.00
2019-05-29T19:55:07.491Z,1.20
2019-05-29T19:57:52.472Z,1.00
2019-05-29T20:00:11.231Z,1.00
2019-05-29T20:02:40.429Z,1.13
2019-05-29T20:05:09.780Z,1.43
2019-05-29T20:07:38.674Z,1.47
2019-05-29T20:10:09.020Z,1.47
2019-05-29T20:12:38.212Z,1.37
2019-05-29T20:15:08.672Z,1.13
2019-05-29T20:17:38.496Z,1.60
2019-05-29T20:20:07.899Z,1.23
2019-05-29T20:22:37.016Z,1.20
2019-05-29T20:25:07.779Z,1.20
2019-05-29T20:27:36.714Z,1.00
2019-05-29T20:30:11.236Z,1.00
2019-05-29T20:32:40.799Z,0.90
2019-05-29T20:35:09.797Z,1.10
2019-05-29T20:37:39.462Z,1.30
2019-05-29T20:40:08.763Z,1.60
2019-05-29T20:42:38.508Z,2.40
2019-05-29T20:45:08.203Z,3.27
2019-05-29T20:47:38.026Z,3.37
2019-05-29T20:50:08.773Z,2.73
2019-05-29T20:52:37.746Z,2.07
2019-05-29T20:55:07.042Z,2.00
2019-05-29T20:57:36.055Z,1.90
2019-05-29T21:00:09.999Z,1.50
2019-05-29T21:02:40.295Z,1.60
2019-05-29T21:05:09.685Z,1.20
2019-05-29T21:07:38.922Z,2.10
2019-05-29T21:10:08.168Z,1.73
2019-05-29T21:12:37.561Z,1.50
2019-05-29T21:15:08.428Z,1.90
2019-05-29T21:17:37.904Z,1.37
2019-05-29T21:20:08.883Z,1.80
2019-05-29T21:22:38.565Z,1.60
2019-05-29T21:25:12.629Z,1.50
2019-05-29T21:27:43.239Z,1.20
2019-05-29T21:30:11.568Z,1.43
2019-05-29T21:32:41.806Z,1.63
2019-05-29T21:35:11.106Z,1.47
2019-05-29T21:37:40.338Z,1.20
2019-05-29T21:40:09.654Z,1.27
2019-05-29T21:42:38.612Z,1.60
2019-05-29T21:45:07.686Z,1.37
2019-05-29T21:47:37.065Z,2.00
2019-05-29T21:50:07.748Z,1.40
2019-05-29T21:52:37.494Z,1.27
2019-05-29T21:55:09.988Z,1.30
2019-05-29T21:57:42.287Z,1.40
2019-05-29T22:00:11.958Z,1.27
2019-05-29T22:02:42.192Z,1.70
2019-05-29T22:05:11.802Z,1.73
2019-05-29T22:07:40.844Z,1.93
2019-05-29T22:10:10.143Z,1.60
2019-05-29T22:12:39.075Z,1.80
2019-05-29T22:15:08.361Z,1.60
2019-05-29T22:17:37.332Z,3.33
2019-05-29T22:20:11.298Z,1.23
2019-05-29T22:22:39.966Z,1.63
2019-05-29T22:25:09.115Z,1.50
2019-05-29T22:27:38.310Z,1.67
2019-05-29T22:30:09.146Z,1.70
2019-05-29T22:32:38.064Z,1.40
2019-05-29T22:35:07.738Z,1.77
2019-05-29T22:37:36.690Z,1.20
2019-05-29T22:40:09.133Z,1.37
2019-05-29T22:42:38.025Z,1.20
2019-05-29T22:45:08.037Z,1.30
2019-05-29T22:47:36.926Z,1.27
2019-05-29T22:50:07.377Z,1.10
2019-05-29T22:52:36.626Z,1.20
2019-05-29T22:55:07.147Z,1.00
2019-05-29T22:57:36.028Z,1.30
2019-05-29T23:00:07.654Z,1.10
2019-05-29T23:02:36.947Z,1.13
2019-05-29T23:05:07.359Z,1.50
2019-05-29T23:07:37.362Z,1.43
2019-05-29T23:10:09.776Z,1.30
2019-05-29T23:12:38.816Z,1.30
2019-05-29T23:15:08.194Z,1.30
2019-05-29T23:17:38.779Z,1.03
2019-05-29T23:20:11.285Z,1.50
2019-05-29T23:22:40.190Z,3.30
2019-05-29T23:25:09.508Z,2.03
2019-05-29T23:27:38.638Z,2.53
2019-05-29T23:30:08.992Z,1.60
2019-05-29T23:32:38.378Z,1.80
2019-05-29T23:35:08.928Z,1.60
2019-05-29T23:37:37.881Z,1.67
2019-05-29T23:40:08.020Z,1.87
2019-05-29T23:42:37.007Z,1.50
2019-05-29T23:45:07.851Z,1.40
2019-05-29T23:47:36.763Z,1.67
2019-05-29T23:50:08.983Z,1.60
2019-05-29T23:52:38.183Z,1.23
2019-05-29T23:55:10.711Z,1.53
2019-05-29T23:57:39.629Z,1.43
